Flight Track Log - Related Links

Times and Time Zones

All times are in EST time to prevent confusion due to time zone crossing. See the VP-BLX flight status page for this flight to view local times or setup timezone preferences in your user account.

Time Position Orientation Groundspeed Altitude Reporting Facility
EST Latitude Longitude Course Direction KTS MPH feet Rate Location/Type
Fri 01:57:36 PM 40.1480 116.5860 352° North 164 189 3,600  Level FlightAware ADS-B
Fri 01:58:11 PM 40.1770 116.5820 354° North 208 239 4,100 492 Climbing FlightAware ADS-B
Fri 01:58:37 PM 40.1980 116.5800 356° North 208 239 4,100 2,020 Level FlightAware ADS-B
Fri 01:59:52 PM 40.2960 116.5940 North 270 311 7,500 2,557 Climbing FlightAware ADS-B
Fri 02:00:32 PM 40.3470 116.5990 North 277 319 9,000 2,175 Climbing FlightAware ADS-B
Fri 02:01:12 PM 40.3970 116.6040 North 284 327 10,400 1,077 Climbing FlightAware ADS-B
Fri 02:01:50 PM 40.4400 116.6080 North 284 327 10,400  Level FlightAware ADS-B
Fri 02:02:27 PM 40.4810 116.6120 North 284 327 10,400  Level FlightAware ADS-B
Fri 02:03:05 PM 40.5230 116.6150 North 284 327 10,400 1,126 Level FlightAware ADS-B
Fri 02:06:00 PM 40.7444 116.3286 316° Northwest  Level Estimated
Fri 02:07:00 PM 40.8202 116.2300 315° West  Level Estimated
Fri 02:08:00 PM 40.8958 116.1312 315° West  Level Estimated
Fri 02:09:00 PM 40.9714 116.0321 315° West  Level Estimated
Fri 02:10:00 PM 41.0469 115.9328 315° West  Level Estimated
Fri 02:11:00 PM 41.1223 115.8333 315° West  Level Estimated
Fri 02:12:00 PM 41.1976 115.7335 315° West  Level Estimated
Fri 02:13:00 PM 41.2729 115.6336 315° West  Level Estimated
Fri 02:14:00 PM 41.3480 115.5333 315° West  Level Estimated
Fri 02:15:00 PM 41.4231 115.4329 315° West  Level Estimated
Fri 02:16:00 PM 41.4981 115.3322 315° West  Level Estimated
Fri 02:17:00 PM 41.5729 115.2313 315° West  Level Estimated
Fri 02:18:00 PM 41.6477 115.1301 315° West  Level Estimated
Fri 02:19:00 PM 41.7225 115.0288 315° West  Level Estimated
Fri 02:20:00 PM 41.7971 114.9271 315° West  Level Estimated
Fri 02:21:00 PM 41.8716 114.8253 315° West  Level Estimated
Fri 02:22:00 PM 41.9460 114.7232 314° West  Level Estimated
Fri 02:23:00 PM 42.0204 114.6209 314° West  Level Estimated
Fri 02:23:30 PM 42.2480 114.6880 314° West 444 511 34,100  Level FlightAware ADS-B
Fri 02:24:07 PM 42.2860 114.6130 304° West 444 511 34,100  Level FlightAware ADS-B
Fri 02:24:43 PM 42.3210 114.5420 304° West 444 511 34,100  Level FlightAware ADS-B
Fri 02:25:19 PM 42.3560 114.4720 304° West 444 511 34,100  Level FlightAware ADS-B
Fri 02:25:56 PM 42.3920 114.3990 304° West 444 511 34,100  Level FlightAware ADS-B
Fri 02:26:22 PM 42.4180 114.3480 305° West 444 511 34,100  Level FlightAware ADS-B
Fri 02:26:56 PM 42.4510 114.2810 304° West 444 511 34,100  Level FlightAware ADS-B
Fri 02:28:11 PM 42.5240 114.1340 304° West 444 511 34,100  Level FlightAware ADS-B
Fri 02:28:48 PM 42.5600 114.0610 304° West 444 511 34,100  Level FlightAware ADS-B
Fri 02:29:48 PM 42.6190 113.9430 304° West 444 511 34,100  Level FlightAware ADS-B
Fri 02:30:12 PM 42.6420 113.8960 304° West 444 511 34,100  Level FlightAware ADS-B
Fri 02:31:12 PM 42.7010 113.7780 304° West 444 511 34,100  Level FlightAware ADS-B
Fri 02:31:49 PM 42.7370 113.7050 304° West 444 511 34,100  Level FlightAware ADS-B
Fri 02:32:13 PM 42.7600 113.6580 304° West 444 511 34,100  Level FlightAware ADS-B
Fri 02:33:01 PM 42.8070 113.5630 304° West 444 511 34,100  Level FlightAware ADS-B
Fri 02:33:25 PM 42.8300 113.5160 304° West 444 511 34,100  Level FlightAware ADS-B
Fri 02:33:37 PM 42.8420 113.4920 304° West 444 511 34,100 13 Level FlightAware ADS-B
Fri 02:36:00 PM 43.0163 113.2407 314° West  Level Estimated
Fri 02:37:00 PM 43.0893 113.1348 313° West  Level Estimated
Fri 02:38:00 PM 43.1622 113.0286 313° West  Level Estimated
Fri 02:39:00 PM 43.2350 112.9222 313° West  Level Estimated
Fri 02:40:00 PM 43.3077 112.8156 313° West  Level Estimated
Fri 02:41:00 PM 43.3803 112.7087 313° West  Level Estimated
Fri 02:42:00 PM 43.4528 112.6016 313° West  Level Estimated
Fri 02:43:00 PM 43.5252 112.4941 313° West  Level Estimated
Fri 02:44:00 PM 43.5975 112.3865 313° West  Level Estimated
Fri 02:45:00 PM 43.6697 112.2785 313° West  Level Estimated
Fri 02:46:00 PM 43.7418 112.1704 313° West  Level Estimated
Fri 02:47:00 PM 43.8138 112.0619 313° West  Level Estimated
Fri 02:48:00 PM 43.8857 111.9532 313° West  Level Estimated
Fri 02:49:00 PM 43.9575 111.8442 312° West  Level Estimated
Fri 02:50:00 PM 44.0291 111.7350 312° West  Level Estimated
Fri 02:51:00 PM 44.1007 111.6255 312° West  Level Estimated
Fri 02:52:00 PM 44.1722 111.5157 312° West  Level Estimated
Fri 02:53:00 PM 44.2436 111.4057 312° West  Level Estimated
Fri 02:54:00 PM 44.3148 111.2954 312° West  Level Estimated
Fri 02:55:00 PM 44.3860 111.1848 312° West  Level Estimated
Fri 02:56:00 PM 44.4570 111.0740 312° West  Level Estimated
Fri 02:57:00 PM 44.5280 110.9629 312° West  Level Estimated
Fri 02:58:00 PM 44.5988 110.8515 312° West  Level Estimated
Fri 02:59:00 PM 44.6695 110.7398 312° West  Level Estimated
Fri 03:00:00 PM 44.7401 110.6279 312° West  Level Estimated
Fri 03:01:00 PM 44.8106 110.5157 312° West  Level Estimated
Fri 03:02:00 PM 44.8810 110.4033 311° West  Level Estimated
Fri 03:03:00 PM 44.9513 110.2905 311° West  Level Estimated
Fri 03:04:00 PM 45.0215 110.1775 311° West  Level Estimated
Fri 03:05:00 PM 45.0915 110.0642 311° West  Level Estimated
Fri 03:06:00 PM 45.1615 109.9506 311° West  Level Estimated
Fri 03:07:00 PM 45.2313 109.8368 311° West  Level Estimated
Fri 03:08:00 PM 45.3010 109.7226 311° West  Level Estimated
Fri 03:09:00 PM 45.3706 109.6082 311° West  Level Estimated
Fri 03:10:00 PM 45.4401 109.4935 311° West  Level Estimated
Fri 03:11:00 PM 45.5095 109.3785 311° West  Level Estimated
Fri 03:12:00 PM 45.5788 109.2633 311° West  Level Estimated
Fri 03:13:00 PM 45.6479 109.1477 311° West  Level Estimated
Fri 03:14:00 PM 45.7169 109.0319 311° West  Level Estimated
Fri 03:15:00 PM 45.7859 108.9158 310° West  Level Estimated
Fri 03:16:00 PM 45.8546 108.7994 310° West  Level Estimated
Fri 03:17:00 PM 45.9233 108.6827 310° West  Level Estimated
Fri 03:18:00 PM 45.9861 108.5755 310° West  Level Estimated
Fri 03:19:00 PM 46.0488 108.4682 310° West  Level Estimated
Fri 03:20:00 PM 46.1114 108.3605 310° West  Level Estimated
Fri 03:21:00 PM 46.1739 108.2527 310° West  Level Estimated
Fri 03:22:00 PM 46.2363 108.1446 310° West  Level Estimated
Fri 03:23:00 PM 46.2986 108.0362 310° West  Level Estimated
Fri 03:24:00 PM 46.3608 107.9276 310° West  Level Estimated
Fri 03:25:00 PM 46.4229 107.8188 310° West  Level Estimated
Fri 03:26:00 PM 46.4848 107.7097 310° West  Level Estimated
Fri 03:27:00 PM 46.5467 107.6003 309° West  Level Estimated
Fri 03:28:00 PM 46.6085 107.4907 309° West  Level Estimated
Fri 03:29:00 PM 46.6702 107.3809 309° West  Level Estimated
Fri 03:30:00 PM 46.7317 107.2708 309° West  Level Estimated
Fri 03:31:00 PM 46.7932 107.1604 309° West  Level Estimated
Fri 03:32:00 PM 46.8545 107.0498 309° West  Level Estimated
Fri 03:33:00 PM 46.9158 106.9390 309° West  Level Estimated
Fri 03:34:00 PM 46.9769 106.8279 309° West  Level Estimated
Fri 03:35:00 PM 47.0379 106.7165 309° West  Level Estimated
Fri 03:36:00 PM 47.0989 106.6049 309° West  Level Estimated
Fri 03:37:00 PM 47.1597 106.4930 309° West  Level Estimated
Fri 03:38:00 PM 47.2204 106.3809 309° West  Level Estimated
Fri 03:39:00 PM 47.2809 106.2685 309° West  Level Estimated
Fri 03:40:00 PM 47.3414 106.1559 308° West  Level Estimated
Fri 03:41:00 PM 47.4018 106.0430 308° West  Level Estimated
Fri 03:42:00 PM 47.4621 105.9298 308° West  Level Estimated
Fri 03:43:00 PM 47.5222 105.8164 308° West  Level Estimated
Fri 03:44:00 PM 47.5822 105.7027 308° West  Level Estimated
Fri 03:45:00 PM 47.6422 105.5888 308° West  Level Estimated
Fri 03:46:00 PM 47.7020 105.4746 308° West  Level Estimated
Fri 03:47:00 PM 47.7617 105.3601 308° West  Level Estimated
Fri 03:48:00 PM 47.8213 105.2454 308° West  Level Estimated
Fri 03:49:00 PM 47.8807 105.1304 308° West  Level Estimated
Fri 03:50:00 PM 47.9401 105.0152 308° West  Level Estimated
Fri 03:51:00 PM 47.9993 104.8996 307° West  Level Estimated
Fri 03:52:00 PM 48.0584 104.7839 307° West  Level Estimated
Fri 03:53:00 PM 48.1175 104.6678 307° West  Level Estimated
Fri 03:54:00 PM 48.1763 104.5515 307° West  Level Estimated
Fri 03:55:00 PM 48.2351 104.4349 307° West  Level Estimated
Fri 03:56:00 PM 48.2938 104.3181 307° West  Level Estimated
Fri 03:57:00 PM 48.3523 104.2009 307° West  Level Estimated
Fri 03:58:00 PM 48.4107 104.0835 307° West  Level Estimated
Fri 03:59:00 PM 48.4690 103.9659 307° West  Level Estimated
Fri 04:00:00 PM 48.5272 103.8480 307° West  Level Estimated
Fri 04:01:00 PM 48.5852 103.7298 307° West  Level Estimated
Fri 04:02:00 PM 48.6431 103.6113 307° West  Level Estimated
Fri 04:03:00 PM 48.7010 103.4926 306° West  Level Estimated
Fri 04:04:00 PM 48.7586 103.3735 306° West  Level Estimated
Fri 04:05:00 PM 48.8162 103.2542 306° West  Level Estimated
Fri 04:06:00 PM 48.8736 103.1347 306° West  Level Estimated
Fri 04:07:00 PM 48.9310 103.0148 306° West  Level Estimated
Fri 04:08:00 PM 48.9882 102.8947 306° West  Level Estimated
Fri 04:09:00 PM 49.0452 102.7744 306° West  Level Estimated
Fri 04:10:00 PM 49.1022 102.6537 306° West  Level Estimated
Fri 04:11:00 PM 49.1590 102.5328 306° West  Level Estimated
Fri 04:12:00 PM 49.2157 102.4115 306° West  Level Estimated
Fri 04:13:00 PM 49.2722 102.2900 306° West  Level Estimated
Fri 04:14:00 PM 49.3287 102.1683 305° West  Level Estimated
Fri 04:15:00 PM 49.3850 102.0462 305° West  Level Estimated
Fri 04:16:00 PM 49.4412 101.9239 305° West  Level Estimated
Fri 04:17:00 PM 49.4972 101.8013 305° West  Level Estimated
Fri 04:18:00 PM 49.5531 101.6784 305° West  Level Estimated
Fri 04:19:00 PM 49.6089 101.5552 305° West  Level Estimated
Fri 04:20:00 PM 49.6646 101.4317 305° West  Level Estimated
Fri 04:21:00 PM 49.7201 101.3080 305° West  Level Estimated
Fri 04:22:00 PM 49.7755 101.1840 305° West  Level Estimated
Fri 04:23:00 PM 49.8308 101.0597 305° West  Level Estimated
Fri 04:24:00 PM 49.8859 100.9351 305° West  Level Estimated
Fri 04:25:00 PM 49.9409 100.8102 304° West  Level Estimated
Fri 04:26:00 PM 49.9958 100.6850 304° West  Level Estimated
Fri 04:27:00 PM 50.0505 100.5596 304° West  Level Estimated
Fri 04:28:00 PM 50.1051 100.4339 304° West  Level Estimated
Fri 04:29:00 PM 50.1595 100.3078 304° West  Level Estimated
Fri 04:30:00 PM 50.2138 100.1815 304° West  Level Estimated
Fri 04:31:00 PM 50.2680 100.0549 304° West  Level Estimated
Fri 04:32:00 PM 50.3221 99.9281 304° West  Level Estimated
Fri 04:33:00 PM 50.3760 99.8009 304° West  Level Estimated
Fri 04:34:00 PM 50.4297 99.6734 304° West  Level Estimated
Fri 04:35:00 PM 50.4834 99.5457 303° West  Level Estimated
Fri 04:36:00 PM 50.5369 99.4176 303° West  Level Estimated
Fri 04:37:00 PM 50.5902 99.2893 303° West  Level Estimated
Fri 04:38:00 PM 50.6434 99.1607 303° West  Level Estimated
Fri 04:39:00 PM 50.6965 99.0318 303° West  Level Estimated
Fri 04:40:00 PM 50.7494 98.9026 303° West  Level Estimated
Fri 04:41:00 PM 50.8022 98.7731 303° West  Level Estimated
Fri 04:42:00 PM 50.8548 98.6433 303° West  Level Estimated
Fri 04:43:00 PM 50.9073 98.5132 303° West  Level Estimated
Fri 04:44:00 PM 50.9596 98.3829 303° West  Level Estimated
Fri 04:45:00 PM 51.0118 98.2522 302° West  Level Estimated
Fri 04:46:00 PM 51.0639 98.1212 302° West  Level Estimated
Fri 04:47:00 PM 51.1158 97.9900 302° West  Level Estimated
Fri 04:48:00 PM 51.1675 97.8584 302° West  Level Estimated
Fri 04:49:00 PM 51.2192 97.7266 302° West  Level Estimated
Fri 04:50:00 PM 51.2706 97.5944 302° West  Level Estimated
Fri 04:51:00 PM 51.3219 97.4620 302° West  Level Estimated
Fri 04:52:00 PM 51.3731 97.3292 302° West  Level Estimated
Fri 04:53:00 PM 51.4241 97.1962 302° West  Level Estimated
Fri 04:54:00 PM 51.4749 97.0629 302° West  Level Estimated
Fri 04:55:00 PM 51.5257 96.9293 301° West  Level Estimated
Fri 04:56:00 PM 51.5762 96.7953 301° West  Level Estimated
Fri 04:57:00 PM 51.6266 96.6611 301° West  Level Estimated
Fri 04:58:00 PM 51.6769 96.5266 301° West  Level Estimated
Fri 04:59:00 PM 51.7270 96.3918 301° West  Level Estimated
Fri 05:00:00 PM 51.7769 96.2567 301° West  Level Estimated
Fri 05:01:00 PM 51.8267 96.1213 301° West  Level Estimated
Fri 05:02:00 PM 51.8763 95.9856 301° West  Level Estimated
Fri 05:02:28 PM 52.3310 92.3000 301° West 420 483 36,000  Level FlightAware ADS-B
Fri 05:03:00 PM 51.9258 95.8495 301° West  Level Estimated
Fri 05:03:14 PM 52.3650 92.1840 296° West 422 486 36,000  Level FlightAware ADS-B
Fri 05:04:03 PM 52.4100 92.0290 296° West 422 486 36,000  Level FlightAware ADS-B
Fri 05:04:43 PM 52.4430 91.9140 295° West 421 484 36,000  Level FlightAware ADS-B
Fri 05:05:18 PM 52.4720 91.8140 295° West 420 483 36,000  Level FlightAware ADS-B
Fri 05:06:18 PM 52.5210 91.6450 296° West 420 483 36,000  Level FlightAware ADS-B
Fri 05:06:48 PM 52.5430 91.5690 295° West 420 483 36,000  Level FlightAware ADS-B
Fri 05:07:52 PM 52.5970 91.3800 295° West 420 483 36,000  Level FlightAware ADS-B
Fri 05:08:40 PM 52.6380 91.2330 295° West 421 484 36,000  Level FlightAware ADS-B
Fri 05:09:39 PM 52.6850 91.0650 295° West 421 484 36,000  Level FlightAware ADS-B
Fri 05:10:25 PM 52.7230 90.9310 295° West 422 486 36,000  Level FlightAware ADS-B
Fri 05:11:32 PM 52.7780 90.7320 295° West 424 488 36,000  Level FlightAware ADS-B
Fri 05:12:22 PM 52.8180 90.5870 295° West 424 488 36,000  Level FlightAware ADS-B
Fri 05:12:57 PM 52.8450 90.4850 294° West 426 490 36,000  Level FlightAware ADS-B
Fri 05:13:47 PM 52.8880 90.3290 295° West 427 491 36,000  Level FlightAware ADS-B
Fri 05:14:42 PM 52.9270 90.1830 294° West 422 486 36,000  Level FlightAware ADS-B
Fri 05:15:32 PM 52.9710 90.0210 294° West 421 484 36,000  Level FlightAware ADS-B
Fri 05:16:09 PM 52.9960 89.9280 294° West 420 483 36,000  Level FlightAware ADS-B
Fri 05:16:54 PM 53.0350 89.7810 294° West 418 481 36,000 85 Level FlightAware ADS-B
Fri 05:17:20 PM 53.0550 89.7030 293° West 418 481 36,100  Climbing FlightAware ADS-B
Fri 05:18:12 PM 53.0910 89.5640 293° West 418 481 36,000 -152 Descending FlightAware ADS-B
Fri 05:18:39 PM 53.1120 89.4860 294° West 418 481 35,900 -73 Descending FlightAware ADS-B
Fri 05:19:34 PM 53.1590 89.3070 294° West 418 481 35,900 -65 Level FlightAware ADS-B
Fri 05:20:11 PM 53.1870 89.1980 293° West 418 481 35,800 73 Descending FlightAware ADS-B
Fri 05:20:56 PM 53.2180 89.0780 293° West 412 474 36,000 126 Climbing FlightAware ADS-B
Fri 05:21:46 PM 53.2550 88.9300 293° West 414 476 36,000  Level FlightAware ADS-B
Fri 05:22:31 PM 53.2910 88.8050 296° West 413 475 36,000  Level FlightAware ADS-B
Fri 05:23:21 PM 53.3330 88.6550 295° West 413 475 36,000  Level FlightAware ADS-B
Fri 05:24:06 PM 53.3690 88.5260 295° West 415 478 36,000  Level FlightAware ADS-B
Fri 05:24:51 PM 53.4040 88.4000 295° West 416 479 36,000  Level FlightAware ADS-B
Fri 05:25:46 PM 53.4500 88.2330 295° West 417 480 36,000  Level FlightAware ADS-B
Fri 05:26:32 PM 53.4870 88.0980 295° West 416 479 36,000  Level FlightAware ADS-B
Fri 05:27:17 PM 53.5200 87.9770 295° West 416 479 36,000  Level FlightAware ADS-B
Fri 05:28:02 PM 53.5580 87.8370 295° West 415 478 36,000  Level FlightAware ADS-B
Fri 05:28:27 PM 53.5780 87.7620 294° West 414 476 36,000  Level FlightAware ADS-B
Fri 05:29:14 PM 53.6140 87.6290 295° West 416 479 36,000  Level FlightAware ADS-B
Fri 05:30:02 PM 53.6520 87.4860 294° West 418 481 36,000  Level FlightAware ADS-B
Fri 05:30:27 PM 53.6720 87.4070 293° West 419 482 36,000  Level FlightAware ADS-B
Fri 05:31:22 PM 53.7160 87.2430 294° West 421 484 36,000  Level FlightAware ADS-B
Fri 05:31:47 PM 53.7350 87.1690 293° West 422 486 36,000  Level FlightAware ADS-B
Fri 05:32:52 PM 53.7840 86.9800 294° West 421 484 36,000  Level FlightAware ADS-B
Fri 05:33:37 PM 53.8180 86.8350 292° West 421 484 36,000  Level FlightAware ADS-B
Fri 05:34:32 PM 53.8480 86.6590 286° West 424 488 36,000  Level FlightAware ADS-B
Fri 05:34:52 PM 53.8580 86.5970 285° West 425 489 36,000  Level FlightAware ADS-B
Fri 05:35:53 PM 53.8860 86.4240 285° West 427 491 36,000  Level FlightAware ADS-B
Fri 05:36:27 PM 53.9090 86.2910 286° West 428 493 36,000  Level FlightAware ADS-B
Fri 05:37:22 PM 53.9380 86.1140 286° West 429 494 36,000  Level FlightAware ADS-B
Fri 05:37:52 PM 53.9540 86.0150 285° West 430 495 36,000  Level FlightAware ADS-B
Fri 05:38:22 PM 53.9690 85.9180 285° West 429 494 36,000  Level FlightAware ADS-B
Fri 05:39:13 PM 53.9950 85.7570 285° West 428 493 36,000  Level FlightAware ADS-B
Fri 05:40:02 PM 54.0210 85.5950 285° West 428 493 36,000  Level FlightAware ADS-B
Fri 05:40:37 PM 54.0390 85.4800 285° West 428 493 36,000  Level FlightAware ADS-B
Fri 05:41:32 PM 54.0670 85.3020 285° West 427 491 36,000  Level FlightAware ADS-B
Fri 05:42:22 PM 54.0920 85.1400 285° West 426 490 36,000  Level FlightAware ADS-B
Fri 05:42:52 PM 54.1060 85.0430 284° West 426 490 36,000  Level FlightAware ADS-B
Fri 05:43:22 PM 54.1210 84.9460 285° West 428 493 36,000  Level FlightAware ADS-B
Fri 05:44:22 PM 54.1490 84.7490 284° West 429 494 36,000  Level FlightAware ADS-B
Fri 05:45:22 PM 54.1830 84.5560 287° West 428 493 36,000  Level FlightAware ADS-B
Fri 05:46:17 PM 54.2140 84.3760 286° West 428 493 36,000  Level FlightAware ADS-B
Fri 05:46:47 PM 54.2300 84.2790 286° West 429 494 36,000  Level FlightAware ADS-B
Fri 05:47:37 PM 54.2560 84.1160 285° West 429 494 36,000  Level FlightAware ADS-B
Fri 05:48:22 PM 54.2800 83.9700 286° West 429 494 36,000  Level FlightAware ADS-B
Fri 05:49:17 PM 54.3090 83.7910 286° West 429 494 36,000  Level FlightAware ADS-B
Fri 05:50:07 PM 54.3360 83.6260 286° West 428 493 36,000  Level FlightAware ADS-B
Fri 05:50:57 PM 54.3610 83.4620 285° West 429 494 36,000  Level FlightAware ADS-B
Fri 05:51:27 PM 54.3770 83.3640 286° West 429 494 36,000  Level FlightAware ADS-B
Fri 05:52:17 PM 54.4030 83.2000 285° West 431 496 36,000  Level FlightAware ADS-B
Fri 05:53:22 PM 54.4360 82.9850 285° West 432 497 36,000  Level FlightAware ADS-B
Fri 05:54:12 PM 54.4610 82.8200 285° West 432 497 36,000  Level FlightAware ADS-B
Fri 05:54:37 PM 54.4730 82.7370 284° West 433 498 36,000  Level FlightAware ADS-B
Fri 05:55:02 PM 54.4860 82.6530 285° West 433 498 36,000  Level FlightAware ADS-B
Fri 05:55:57 PM 54.5130 82.4700 284° West 432 497 36,000  Level FlightAware ADS-B
Fri 05:56:37 PM 54.5330 82.3370 285° West 432 497 36,000  Level FlightAware ADS-B
Fri 05:57:27 PM 54.5600 82.1710 286° West 433 498 36,000  Level FlightAware ADS-B
Fri 05:58:07 PM 54.5890 82.0420 291° West 434 499 36,000  Level FlightAware ADS-B
Fri 05:59:02 PM 54.6290 81.8670 292° West 435 501 36,000  Level FlightAware ADS-B
Fri 05:59:57 PM 54.6690 81.6880 291° West 436 502 36,000  Level FlightAware ADS-B
Fri 06:00:57 PM 54.7110 81.4960 291° West 436 502 36,000  Level FlightAware ADS-B
Fri 06:01:48 PM 54.7470 81.3300 291° West 435 501 36,000  Level FlightAware ADS-B
Fri 06:02:37 PM 54.7820 81.1680 291° West 437 503 36,000  Level FlightAware ADS-B
Fri 06:03:27 PM 54.8170 81.0040 290° West 437 503 36,000  Level FlightAware ADS-B
Fri 06:04:22 PM 54.8550 80.8240 290° West 436 502 36,000  Level FlightAware ADS-B
Fri 06:05:18 PM 54.8930 80.6430 290° West 438 504 36,000  Level FlightAware ADS-B
Fri 06:06:07 PM 54.9280 80.4780 290° West 438 504 36,000  Level FlightAware ADS-B
Fri 06:06:47 PM 54.9550 80.3470 290° West 437 503 36,000  Level FlightAware ADS-B
Fri 06:07:37 PM 54.9890 80.1830 290° West 439 505 36,000  Level FlightAware ADS-B
Fri 06:08:27 PM 55.0230 80.0130 289° West 440 506 36,000  Level FlightAware ADS-B
Fri 06:08:57 PM 55.0430 79.9170 290° West 440 506 36,000  Level FlightAware ADS-B
Fri 06:09:48 PM 55.0770 79.7460 289° West 440 506 36,000  Level FlightAware ADS-B
Fri 06:10:32 PM 55.1080 79.5950 290° West 440 506 36,000  Level FlightAware ADS-B
Fri 06:11:28 PM 55.1420 79.4220 289° West 440 506 36,000  Level FlightAware ADS-B
Fri 06:12:25 PM 55.1820 79.2200 289° West 437 503 36,000  Level FlightAware ADS-B
Fri 06:12:45 PM 55.1950 79.1530 289° West 436 502 36,000  Level FlightAware ADS-B
Fri 06:13:05 PM 55.2060 79.0960 289° West 436 502 36,000  Level FlightAware ADS-B
Fri 06:14:17 PM 55.2540 78.8460 289° West 436 502 36,000  Level FlightAware ADS-B
Fri 06:14:57 PM 55.2800 78.7110 289° West 437 503 36,000  Level FlightAware ADS-B
Fri 06:15:47 PM 55.3120 78.5420 288° West 437 503 36,000  Level FlightAware ADS-B
Fri 06:16:52 PM 55.3530 78.3250 288° West 438 504 36,000  Level FlightAware ADS-B
Fri 06:17:32 PM 55.3800 78.1990 291° West 439 505 36,000  Level FlightAware ADS-B
Fri 06:18:41 PM 55.4340 77.9620 292° West 442 509 36,000  Level FlightAware ADS-B
Fri 06:19:36 PM 55.4750 77.7790 292° West 440 506 36,000  Level FlightAware ADS-B
Fri 06:20:17 PM 55.5050 77.6460 292° West 442 509 36,000  Level FlightAware ADS-B
Fri 06:21:12 PM 55.5450 77.4620 291° West 443 510 36,000  Level FlightAware ADS-B
Fri 06:22:01 PM 55.5820 77.2930 291° West 442 509 36,000  Level FlightAware ADS-B
Fri 06:22:36 PM 55.6070 77.1760 291° West 443 510 36,000  Level FlightAware ADS-B
Fri 06:23:26 PM 55.6430 77.0080 291° West 444 511 36,000  Level FlightAware ADS-B
Fri 06:24:11 PM 55.6760 76.8540 291° West 444 511 36,000  Level FlightAware ADS-B
Fri 06:24:51 PM 55.7050 76.7200 291° West 445 512 36,000  Level FlightAware ADS-B
Fri 06:25:46 PM 55.7440 76.5310 290° West 446 513 36,000  Level FlightAware ADS-B
Fri 06:26:06 PM 55.7580 76.4640 290° West 445 512 36,000  Level FlightAware ADS-B
Fri 06:27:05 PM 55.8000 76.2650 291° West 444 511 36,000  Level FlightAware ADS-B
Fri 06:27:30 PM 55.8170 76.1800 290° West 443 510 36,000  Level FlightAware ADS-B
Fri 06:28:25 PM 55.8560 75.9920 290° West 444 511 36,000  Level FlightAware ADS-B
Fri 06:29:15 PM 55.8900 75.8210 290° West 443 510 36,000  Level FlightAware ADS-B
Fri 06:30:05 PM 55.9250 75.6510 290° West 442 509 36,000  Level FlightAware ADS-B
Fri 06:30:55 PM 55.9590 75.4790 290° West 442 509 36,000  Level FlightAware ADS-B
Fri 06:31:50 PM 55.9960 75.2910 289° West 442 509 36,000  Level FlightAware ADS-B
Fri 06:32:15 PM 56.0120 75.2090 289° West 440 506 36,000  Level FlightAware ADS-B
Fri 06:33:05 PM 56.0460 75.0340 289° West 441 507 36,000  Level FlightAware ADS-B
Fri 06:33:55 PM 56.0780 74.8670 289° West 442 509 36,000  Level FlightAware ADS-B
Fri 06:34:50 PM 56.1150 74.6750 289° West 442 509 36,000  Level FlightAware ADS-B
Fri 06:35:35 PM 56.1450 74.5180 289° West 442 509 36,000  Level FlightAware ADS-B
Fri 06:36:41 PM 56.1870 74.2950 289° West 442 509 36,000  Level FlightAware ADS-B
Fri 06:37:35 PM 56.2220 74.1040 288° West 441 507 36,000  Level FlightAware ADS-B
Fri 06:38:25 PM 56.2600 73.9330 292° West 444 511 36,000  Level FlightAware ADS-B
Fri 06:39:00 PM 56.2960 73.8220 300° West 449 517 36,000  Level FlightAware ADS-B
Fri 06:39:50 PM 56.3550 73.6680 305° West 451 519 36,000  Level FlightAware ADS-B
Fri 06:40:50 PM 56.4230 73.4840 304° West 449 517 36,000  Level FlightAware ADS-B
Fri 06:41:45 PM 56.4870 73.3100 304° West 449 517 36,000  Level FlightAware ADS-B
Fri 06:42:30 PM 56.5380 73.1700 303° West 449 517 36,000  Level FlightAware ADS-B
Fri 06:43:30 PM 56.6050 72.9840 303° West 447 514 36,000  Level FlightAware ADS-B
Fri 06:43:55 PM 56.6330 72.9060 303° West 446 513 36,000  Level FlightAware ADS-B
Fri 06:44:45 PM 56.6840 72.7640 303° West 446 513 36,000  Level FlightAware ADS-B
Fri 06:45:35 PM 56.7420 72.6010 303° West 446 513 36,000  Level FlightAware ADS-B
Fri 06:46:00 PM 56.7730 72.5140 303° West 445 512 36,000  Level FlightAware ADS-B
Fri 06:46:45 PM 56.8180 72.3860 303° West 445 512 36,000  Level FlightAware ADS-B
Fri 06:47:45 PM 56.8890 72.1820 303° West 447 514 36,000  Level FlightAware ADS-B
Fri 06:48:30 PM 56.9390 72.0400 303° West 447 514 36,000  Level FlightAware ADS-B
Fri 06:49:00 PM 56.9700 71.9480 302° West 448 516 36,000  Level FlightAware ADS-B
Fri 06:49:50 PM 57.0270 71.7840 303° West 450 518 36,000  Level FlightAware ADS-B
Fri 06:50:45 PM 57.0870 71.6070 302° West 449 517 36,000  Level FlightAware ADS-B
Fri 06:51:15 PM 57.1200 71.5100 302° West 449 517 36,000  Level FlightAware ADS-B
Fri 06:52:10 PM 57.1800 71.3320 302° West 449 517 36,000  Level FlightAware ADS-B
Fri 06:53:05 PM 57.2390 71.1550 302° West 448 516 36,000  Level FlightAware ADS-B
Fri 06:53:45 PM 57.2830 71.0250 302° West 449 517 36,000  Level FlightAware ADS-B
Fri 06:54:30 PM 57.3310 70.8780 301° West 451 519 36,000  Level FlightAware ADS-B
Fri 06:55:05 PM 57.3690 70.7630 302° West 450 518 36,000  Level FlightAware ADS-B
Fri 06:55:55 PM 57.4200 70.5970 300° West 446 513 36,000  Level FlightAware ADS-B
Fri 06:56:25 PM 57.4500 70.4970 299° West 445 512 36,000  Level FlightAware ADS-B
Fri 06:57:15 PM 57.4990 70.3300 299° West 447 514 36,000  Level FlightAware ADS-B
Fri 06:58:10 PM 57.5530 70.1470 299° West 449 517 36,000  Level FlightAware ADS-B
Fri 06:59:00 PM 57.6030 69.9770 299° West 449 517 36,000  Level FlightAware ADS-B
Fri 06:59:30 PM 57.6330 69.8750 299° West 449 517 36,000  Level FlightAware ADS-B
Fri 06:59:55 PM 57.6570 69.7910 298° West 450 518 36,000  Level FlightAware ADS-B
Fri 07:00:03 PM 57.6972 69.6532 299° West 449 517 36,000  Level FlightAware ADS-B (USTR / TJM)
Fri 07:00:47 PM 57.7070 69.6190 298° West 451 519 36,000  Level FlightAware ADS-B
Fri 07:01:40 PM 57.7600 69.4340 298° West 448 516 36,000  Level FlightAware ADS-B
Fri 07:01:54 PM 57.8133 69.2470 298° West 444 511 36,000  Level FlightAware ADS-B (USTR / TJM)
Fri 07:02:40 PM 57.8190 69.2280 299° West 446 513 36,000  Level FlightAware ADS-B
Fri 07:03:40 PM 57.8760 69.0240 298° West 450 518 36,000  Level FlightAware ADS-B
Fri 07:04:17 PM 57.9100 68.9040 298° West 450 518 36,000  Level FlightAware ADS-B
Fri 07:05:10 PM 57.9630 68.7130 298° West 450 518 36,000  Level FlightAware ADS-B
Fri 07:05:15 PM 58.0046 68.5613 297° West 448 516 36,000  Level FlightAware ADS-B (USTR / TJM)
Fri 07:06:05 PM 58.0150 68.5230 297° West 449 517 36,000  Level FlightAware ADS-B
Fri 07:06:24 PM 58.0695 68.3239 297° West 447 514 36,000  Level FlightAware ADS-B (USTR / TJM)
Fri 07:07:00 PM 58.0670 68.3340 115° Southeast 448 516 36,000  Level FlightAware ADS-B
Fri 07:07:30 PM 58.0950 68.2280 297° West 448 516 36,000  Level FlightAware ADS-B
Fri 07:07:33 PM 58.1328 68.0903 298° West 445 512 36,000  Level FlightAware ADS-B (USTR / TJM)
Fri 07:08:35 PM 58.1560 68.0040 297° West 446 513 36,000  Level FlightAware ADS-B
Fri 07:08:55 PM 58.1740 67.9350 296° West 446 513 36,000  Level FlightAware ADS-B
Fri 07:09:25 PM 58.2020 67.8320 297° West 445 512 36,000  Level FlightAware ADS-B
Fri 07:10:30 PM 58.2620 67.6060 297° West 443 510 36,000  Level FlightAware ADS-B
Fri 07:11:15 PM 58.3020 67.4540 297° West 442 509 36,000  Level FlightAware ADS-B
Fri 07:11:23 PM 58.3435 67.2939 296° West 444 511 36,000  Level FlightAware ADS-B (USTR / TJM)
Fri 07:12:00 PM 58.3390 67.3120 115° Southeast 444 511 36,000  Level FlightAware ADS-B
Fri 07:12:15 PM 58.3560 67.2460 296° West 445 512 36,000  Level FlightAware ADS-B
Fri 07:12:34 PM 58.4078 67.0453 296° West 449 517 36,000  Level FlightAware ADS-B (USTR / TJM)
Fri 07:13:28 PM 58.4090 67.0420 305° West 449 517 36,000  Level FlightAware ADS-B
Fri 07:13:44 PM 58.4744 66.7845 296° West 452 520 36,000  Level FlightAware ADS-B (USTR / TJM)
Fri 07:14:16 PM 58.4540 66.8640 116° Southeast 451 519 36,000  Level FlightAware ADS-B
Fri 07:15:03 PM 58.5000 66.6830 296° West 452 520 36,000  Level FlightAware ADS-B
Fri 07:15:04 PM 58.5420 66.5164 296° West 452 520 36,000  Level FlightAware ADS-B (USTR / TJM)
Fri 07:15:57 PM 58.5430 66.5140 309° West 452 520 36,000  Level FlightAware ADS-B
Fri 07:16:44 PM 58.5860 66.3400 295° West 453 521 36,000  Level FlightAware ADS-B
Fri 07:17:26 PM 58.6220 66.1940 295° West 451 519 36,000  Level FlightAware ADS-B
Fri 07:17:45 PM 58.6881 65.9267 296° West 454 522 36,000  Level FlightAware ADS-B (USTR / TJM)
Fri 07:18:24 PM 58.6760 65.9740 116° Southeast 454 522 36,000  Level FlightAware ADS-B
Fri 07:18:25 PM 58.7215 65.7895 295° West 452 520 36,000  Level FlightAware ADS-B (USTR / TJM)
Fri 07:18:59 PM 58.7140 65.8190 116° Southeast 452 520 36,000  Level FlightAware ADS-B
Fri 07:19:22 PM 58.7260 65.7720 296° West 451 519 36,000  Level FlightAware ADS-B
Fri 07:19:43 PM 58.7940 65.4890 295° West 452 520 36,000  Level FlightAware ADS-B (USTR / TJM)
Fri 07:20:20 PM 58.7780 65.5570 114° Southeast 450 518 36,000  Level FlightAware ADS-B
Fri 07:20:25 PM 58.8306 65.3352 295° West 453 521 36,000  Level FlightAware ADS-B (USTR / TJM)
Fri 07:21:14 PM 58.8270 65.3500 115° Southeast 453 521 36,000  Level FlightAware ADS-B
Fri 07:21:49 PM 58.8550 65.2300 294° West 454 522 36,000  Level FlightAware ADS-B
Fri 07:22:06 PM 58.9215 64.9498 295° West 453 521 36,000  Level FlightAware ADS-B (USTR / TJM)
Fri 07:22:43 PM 58.9040 65.0260 114° Southeast 452 520 36,000  Level FlightAware ADS-B
Fri 07:22:44 PM 58.9480 64.8359 294° West 453 521 36,000  Level FlightAware ADS-B (USTR / TJM)
Fri 07:23:36 PM 58.9470 64.8410 111° Southeast 453 521 36,000  Level FlightAware ADS-B
Fri 07:23:55 PM 59.0088 64.5724 294° West 455 524 36,000  Level FlightAware ADS-B (USTR / TJM)
Fri 07:24:28 PM 58.9900 64.6530 114° Southeast 455 524 36,000  Level FlightAware ADS-B
Fri 07:24:51 PM 59.0110 64.5620 294° West 454 522 36,000  Level FlightAware ADS-B
Fri 07:25:29 PM 59.0440 64.4190 294° West 454 522 36,000  Level FlightAware ADS-B
Fri 07:25:53 PM 59.1085 64.1332 294° West 451 519 36,000  Level FlightAware ADS-B (USTR / TJM)
Fri 07:26:26 PM 59.0940 64.1980 114° Southeast 451 519 36,000  Level FlightAware ADS-B
Fri 07:27:20 PM 59.1370 64.0070 294° West 452 520 36,000  Level FlightAware ADS-B
Fri 07:28:18 PM 59.1820 63.8040 293° West 452 520 36,000  Level FlightAware ADS-B
Fri 07:29:07 PM 59.2160 63.6470 293° West 452 520 36,000  Level FlightAware ADS-B
Fri 07:29:55 PM 59.2560 63.4390 291° West 454 522 36,000  Level FlightAware ADS-B
Fri 07:30:04 PM 59.3040 63.2042 292° West 452 520 36,000  Level FlightAware ADS-B (USTR / TJM)
Fri 07:31:24 PM 59.3370 63.0380 291° West 450 518 36,000  Level FlightAware ADS-B
Fri 07:32:22 PM 59.3790 62.8260 291° West 449 517 36,000  Level FlightAware ADS-B
Fri 07:32:47 PM 59.3930 62.7230 285° West 443 510 36,000  Level FlightAware ADS-B
Fri 07:33:50 PM 59.4160 62.4640 280° West 442 509 36,000  Level FlightAware ADS-B
Fri 07:34:38 PM 59.4260 62.3390 279° West 443 510 36,000  Level FlightAware ADS-B
Fri 07:35:22 PM 59.4440 62.1240 279° West 443 510 36,000  Level FlightAware ADS-B
Fri 07:36:08 PM 59.4550 61.9770 278° West 444 511 36,000  Level FlightAware ADS-B
Fri 07:36:53 PM 59.4680 61.8140 279° West 445 512 36,000  Level FlightAware ADS-B
Fri 07:37:40 PM 59.4870 61.5650 279° West 446 513 36,000  Level FlightAware ADS-B
Fri 07:38:02 PM 59.5095 61.2578 278° West 446 513 36,000  Level FlightAware ADS-B (USTR / TJM)
Fri 07:38:42 PM 59.5020 61.3660 98° East 446 513 36,000  Level FlightAware ADS-B
Fri 07:39:39 PM 59.5180 61.1410 278° West 448 516 36,000  Level FlightAware ADS-B
Fri 07:40:31 PM 59.5320 60.9370 278° West 450 518 36,000  Level FlightAware ADS-B
Fri 07:41:19 PM 59.5460 60.7400 278° West 449 517 36,000  Level FlightAware ADS-B
Fri 07:41:35 PM 59.5965 60.4100 287° West 464 534 36,000  Level FlightAware ADS-B (USTR / TJM)
Fri 07:42:11 PM 59.5710 60.5350 112° Southeast 457 526 36,000  Level FlightAware ADS-B
Fri 07:42:59 PM 59.6140 60.3400 294° West 466 536 36,000  Level FlightAware ADS-B
Fri 07:43:51 PM 59.6640 60.1560 298° West 466 536 36,000  Level FlightAware ADS-B
Fri 07:44:13 PM 59.6870 60.0680 297° West 465 535 36,000  Level FlightAware ADS-B
Fri 07:44:50 PM 59.7240 59.9230 297° West 466 536 36,000  Level FlightAware ADS-B
Fri 07:45:31 PM 59.7640 59.7700 297° West 468 539 36,000  Level FlightAware ADS-B
Fri 07:46:27 PM 59.8070 59.5940 296° West 468 539 36,000  Level FlightAware ADS-B
Fri 07:47:13 PM 59.8440 59.4430 296° West 468 539 36,000  Level FlightAware ADS-B
Fri 07:48:15 PM 59.8940 59.2390 296° West 468 539 36,000  Level FlightAware ADS-B
Fri 07:49:03 PM 59.9330 59.0800 296° West 468 539 36,000  Level FlightAware ADS-B
Fri 07:49:27 PM 59.9520 59.0010 296° West 468 539 36,000  Level FlightAware ADS-B
Fri 07:50:15 PM 59.9910 58.8420 296° West 468 539 36,000  Level FlightAware ADS-B
Fri 07:51:03 PM 60.0300 58.6830 296° West 468 539 36,000  Level FlightAware ADS-B
Fri 07:51:39 PM 60.0590 58.5640 296° West 468 539 36,000  Level FlightAware ADS-B
Fri 07:52:27 PM 60.0970 58.4050 296° West 468 539 36,000  Level FlightAware ADS-B
Fri 07:53:16 PM 60.1370 58.2420 296° West 468 539 36,000  Level FlightAware ADS-B
Fri 07:54:17 PM 60.1860 58.0390 296° West 468 539 36,000  Level FlightAware ADS-B
Fri 07:55:06 PM 60.2260 57.8760 296° West 468 539 36,000  Level FlightAware ADS-B
Fri 07:55:43 PM 60.2550 57.7530 295° West 468 539 36,000  Level FlightAware ADS-B
Fri 07:58:00 PM 60.2028 57.2996 257° West  Level Estimated
Fri 07:59:00 PM 60.1795 57.1015 257° West  Level Estimated
Fri 08:00:00 PM 60.1558 56.9037 257° West  Level Estimated
Fri 08:01:00 PM 60.1319 56.7062 256° West  Level Estimated
Fri 08:02:00 PM 60.1077 56.5089 256° West  Level Estimated
Fri 08:03:00 PM 60.0832 56.3120 256° West  Level Estimated
Fri 08:04:00 PM 60.0584 56.1153 256° West  Level Estimated
Fri 08:05:00 PM 60.0333 55.9190 256° West  Level Estimated
Fri 08:06:00 PM 60.0079 55.7229 256° West  Level Estimated
Fri 08:07:00 PM 59.9822 55.5272 255° West  Level Estimated
Fri 08:08:00 PM 59.9562 55.3317 255° West  Level Estimated
Fri 08:09:00 PM 59.9300 55.1366 255° West  Level Estimated
Fri 08:10:00 PM 59.9034 54.9418 255° West  Level Estimated
Fri 08:11:00 PM 59.8766 54.7472 255° West  Level Estimated
Fri 08:12:00 PM 59.8495 54.5530 255° West  Level Estimated
Fri 08:13:00 PM 59.8221 54.3592 254° West  Level Estimated
Fri 08:14:00 PM 59.7944 54.1656 254° West  Level Estimated
Fri 08:15:00 PM 59.7664 53.9724 254° West  Level Estimated
Fri 08:16:00 PM 59.7382 53.7794 254° West  Level Estimated
Fri 08:17:00 PM 59.7096 53.5868 254° West  Level Estimated
Fri 08:18:00 PM 59.6808 53.3946 254° West  Level Estimated
Fri 08:19:00 PM 59.6517 53.2027 253° West  Level Estimated
Fri 08:20:00 PM 59.6223 53.0111 253° West  Level Estimated
Fri 08:21:00 PM 59.5927 52.8198 253° West  Level Estimated
Fri 08:22:00 PM 59.5627 52.6289 253° West  Level Estimated
Fri 08:23:00 PM 59.5325 52.4383 253° West  Level Estimated
Fri 08:24:00 PM 59.5020 52.2481 253° West  Level Estimated
Fri 08:25:00 PM 59.4712 52.0582 252° West  Level Estimated
Fri 08:26:00 PM 59.4402 51.8686 252° West  Level Estimated
Fri 08:27:00 PM 59.4089 51.6795 252° West  Level Estimated
Fri 08:28:00 PM 59.3773 51.4906 252° West  Level Estimated
Fri 08:29:00 PM 59.3454 51.3021 252° West  Level Estimated
Fri 08:30:00 PM 59.3133 51.1140 252° West  Level Estimated
Fri 08:31:00 PM 59.2809 50.9262 251° West  Level Estimated
Fri 08:32:00 PM 59.2482 50.7388 251° West  Level Estimated
Fri 08:33:00 PM 59.2153 50.5517 251° West  Level Estimated
Fri 08:34:00 PM 59.1821 50.3650 251° West  Level Estimated
Fri 08:34:25 PM 59.2330 47.6690 251° West 465 535 36,000  Level FlightAware ADS-B
Fri 08:34:57 PM 59.2150 47.5390 255° West 467 537 36,000  Level FlightAware ADS-B
Fri 08:35:23 PM 59.2010 47.4360 255° West 468 539 36,000  Level FlightAware ADS-B
Fri 08:36:22 PM 59.1670 47.1940 255° West 469 540 36,000  Level FlightAware ADS-B
Fri 08:36:58 PM 59.1470 47.0540 254° West 471 542 36,000  Level FlightAware ADS-B
Fri 08:37:53 PM 59.1140 46.8230 255° West 472 543 36,000  Level FlightAware ADS-B
Fri 08:38:48 PM 59.0830 46.6030 255° West 471 542 36,000  Level FlightAware ADS-B
Fri 08:39:39 PM 59.0520 46.3950 254° West 471 542 36,000  Level FlightAware ADS-B
Fri 08:40:10 PM 59.0340 46.2720 254° West 471 542 36,000  Level FlightAware ADS-B
Fri 08:41:06 PM 59.0000 46.0420 254° West 471 542 36,000  Level FlightAware ADS-B
Fri 08:42:07 PM 58.9620 45.7960 253° West 473 544 36,000  Level FlightAware ADS-B
Fri 08:42:54 PM 58.9330 45.6030 254° West 474 545 36,000  Level FlightAware ADS-B
Fri 08:43:22 PM 58.9150 45.4900 253° West 475 547 36,000  Level FlightAware ADS-B
Fri 08:43:59 PM 58.8920 45.3380 254° West 476 548 36,000  Level FlightAware ADS-B
Fri 08:45:00 PM 58.8530 45.0910 253° West 476 548 36,000  Level FlightAware ADS-B
Fri 08:45:56 PM 58.8160 44.8640 253° West 476 548 36,000  Level FlightAware ADS-B
Fri 08:46:48 PM 58.7820 44.6570 252° West 476 548 36,000  Level FlightAware ADS-B
Fri 08:47:48 PM 58.7430 44.4170 253° West 475 547 36,000  Level FlightAware ADS-B
Fri 08:48:37 PM 58.7160 44.2570 252° West 474 545 36,000  Level FlightAware ADS-B
Fri 08:49:09 PM 58.6960 44.1340 253° West 475 547 36,000  Level FlightAware ADS-B
Fri 08:49:35 PM 58.6790 44.0330 252° West 476 548 36,000  Level FlightAware ADS-B
Fri 08:50:30 PM 58.6400 43.8040 252° West 476 548 36,000  Level FlightAware ADS-B
Fri 08:51:05 PM 58.6150 43.6610 251° West 476 548 36,000  Level FlightAware ADS-B
Fri 08:52:05 PM 58.5770 43.4410 252° West 478 550 36,000  Level FlightAware ADS-B
Fri 08:52:34 PM 58.5550 43.3160 251° West 479 551 36,000  Level FlightAware ADS-B
Fri 08:53:28 PM 58.5080 43.0500 251° West 477 549 36,000  Level FlightAware ADS-B
Fri 08:54:10 PM 58.4780 42.8850 251° West 478 550 36,000  Level FlightAware ADS-B
Fri 08:55:05 PM 58.4390 42.6670 251° West 481 554 36,000  Level FlightAware ADS-B
Fri 08:55:58 PM 58.4000 42.4530 251° West 480 552 36,000  Level FlightAware ADS-B
Fri 08:56:35 PM 58.3740 42.3120 251° West 480 552 36,000  Level FlightAware ADS-B
Fri 08:57:36 PM 58.3290 42.0710 251° West 459 528 36,000  Level FlightAware ADS-B
Fri 08:58:17 PM 58.3000 41.9180 250° West 450 518 36,000  Level FlightAware ADS-B
Fri 08:59:09 PM 58.2630 41.7220 250° West 453 521 36,000  Level FlightAware ADS-B
Fri 08:59:53 PM 58.2320 41.5600 250° West 455 524 36,000  Level FlightAware ADS-B
Fri 09:00:49 PM 58.1910 41.3480 250° West 454 522 36,000  Level FlightAware ADS-B
Fri 09:01:24 PM 58.1660 41.2210 250° West 448 516 36,000  Level FlightAware ADS-B
Fri 09:02:20 PM 58.1260 41.0180 250° West 447 514 36,000  Level FlightAware ADS-B
Fri 09:03:16 PM 58.0840 40.8070 249° West 448 516 36,000  Level FlightAware ADS-B
Fri 09:04:08 PM 58.0460 40.6190 249° West 447 514 36,000  Level FlightAware ADS-B
Fri 09:04:56 PM 58.0120 40.4500 249° West 447 514 36,000  Level FlightAware ADS-B
Fri 09:06:00 PM 57.9640 40.2140 249° West 449 517 36,000 -108 Level FlightAware ADS-B
Fri 09:06:47 PM 57.9290 40.0440 249° West 450 518 35,800 -480 Descending FlightAware ADS-B
Fri 09:07:15 PM 57.9070 39.9410 248° West 449 517 35,400 -870 Descending FlightAware ADS-B
Fri 09:07:56 PM 57.8780 39.8010 249° West 447 514 34,800 -857 Descending FlightAware ADS-B
Fri 09:08:46 PM 57.8400 39.6230 248° West 445 512 34,100 -457 Descending FlightAware ADS-B
Fri 09:09:41 PM 57.7970 39.4200 248° West 450 518 34,000 -75 Descending FlightAware ADS-B
Fri 09:10:06 PM 57.7780 39.3420 245° Southwest 456 525 34,000  Level FlightAware ADS-B
Fri 09:10:57 PM 57.7140 39.1620 236° Southwest 463 533 34,000  Level FlightAware ADS-B
Fri 09:11:45 PM 57.6590 39.0250 233° Southwest 463 533 34,000  Level FlightAware ADS-B
Fri 09:12:45 PM 57.5770 38.8250 233° Southwest 463 533 34,000  Level FlightAware ADS-B
Fri 09:13:35 PM 57.5130 38.6730 232° Southwest 452 520 34,000 75 Level FlightAware ADS-B
Fri 09:14:05 PM 57.4730 38.5800 231° Southwest 427 491 34,100  Climbing FlightAware ADS-B
Fri 09:14:30 PM 57.4410 38.5050 232° Southwest 420 483 34,000 -74 Descending FlightAware ADS-B
Fri 09:15:26 PM 57.3740 38.3470 232° Southwest 413 475 34,000  Level FlightAware ADS-B
Fri 09:15:46 PM 57.3510 38.2930 232° Southwest 412 474 34,000 -1,900 Level FlightAware ADS-B
Fri 09:16:26 PM 57.3060 38.1890 231° Southwest 431 496 32,100 -3,000 Descending FlightAware ADS-B
Fri 09:17:20 PM 57.2360 38.0180 233° Southwest 445 512 29,300 -3,164 Descending FlightAware ADS-B
Fri 09:18:16 PM 57.1670 37.8530 232° Southwest 440 506 26,300 -2,460 Descending FlightAware ADS-B
Fri 09:19:00 PM 57.1080 37.7300 229° Southwest 437 503 25,200 -2,211 Descending FlightAware ADS-B
Fri 09:19:32 PM 57.0470 37.6870 201° Southwest 451 519 23,500 -2,763 Descending FlightAware ADS-B
Fri 09:20:16 PM 56.9620 37.6860 180° South 418 481 21,700 -2,684 Descending FlightAware ADS-B
Fri 09:20:48 PM 56.8980 37.6860 180° South 393 452 20,100 -3,300 Descending FlightAware ADS-B
Fri 09:21:16 PM 56.8480 37.6860 180° South 384 442 18,400 -3,500 Descending FlightAware ADS-B
Fri 09:22:12 PM 56.7520 37.6870 180° South 362 417 15,200 -3,375 Descending FlightAware ADS-B
Fri 09:23:08 PM 56.6630 37.6880 180° South 341 392 12,100 -2,845 Descending FlightAware ADS-B
Fri 09:24:08 PM 56.5720 37.6890 180° South 297 342 9,700 -2,286 Descending FlightAware ADS-B
Fri 09:24:32 PM 56.5400 37.6890 180° South 287 330 8,900 -1,607 Descending FlightAware ADS-B
Fri 09:25:04 PM 56.4990 37.6890 180° South 283 326 8,200 -1,200 Descending FlightAware ADS-B
Fri 09:25:32 PM 56.4610 37.6900 179° South 279 321 7,700 -1,071 Descending FlightAware ADS-B
Fri 09:26:00 PM 56.4250 37.6900 180° South 274 315 7,200 -1,071 Descending FlightAware ADS-B
Fri 09:26:28 PM 56.3920 37.6910 179° South 271 312 6,700 -1,038 Descending FlightAware ADS-B
Fri 09:26:52 PM 56.3610 37.6910 180° South 270 311 6,300 -955 Descending FlightAware ADS-B
Fri 09:27:12 PM 56.3360 37.6910 180° South 270 311 6,000 -600 Descending FlightAware ADS-B
Fri 09:27:32 PM 56.3110 37.6910 180° South 262 302 5,900 -346 Descending FlightAware ADS-B
Fri 09:28:04 PM 56.2740 37.6920 179° South 245 282 5,700 -656 Descending FlightAware ADS-B
Fri 09:28:36 PM 56.2390 37.6930 179° South 240 276 5,200 -900 Descending FlightAware ADS-B
Fri 09:29:04 PM 56.2080 37.6930 180° South 235 270 4,800 -700 Descending FlightAware ADS-B
Fri 09:29:36 PM 56.1750 37.6930 180° South 226 260 4,500 -577 Descending FlightAware ADS-B
Fri 09:29:56 PM 56.1540 37.6940 178° South 220 253 4,300 -536 Descending FlightAware ADS-B
Fri 09:30:32 PM 56.1180 37.6940 180° South 209 241 4,000 -536 Descending FlightAware ADS-B
Fri 09:30:52 PM 56.0990 37.6950 178° South 196 226 3,800 -450 Descending FlightAware ADS-B
Fri 09:31:12 PM 56.0820 37.6960 178° South 186 214 3,700 -409 Descending FlightAware ADS-B
Fri 09:31:36 PM 56.0620 37.6980 177° South 178 205 3,500 -625 Descending FlightAware ADS-B
Fri 09:32:00 PM 56.0420 37.7000 177° South 176 203 3,200 -536 Descending FlightAware ADS-B
Fri 09:32:32 PM 56.0220 37.6810 208° Southwest 159 183 3,000 -300 Descending FlightAware ADS-B
Fri 09:33:00 PM 56.0090 37.6520 231° Southwest 155 178 2,900 -346 Descending FlightAware ADS-B
Fri 09:33:24 PM 56.0050 37.6230 256° West 145 167 2,700 -656 Descending FlightAware ADS-B
Fri 09:34:04 PM 55.9980 37.5780 254° West 136 157 2,200 -750 Descending FlightAware ADS-B
Fri 09:34:28 PM 55.9950 37.5530 258° West 129 148 1,900 -750 Descending FlightAware ADS-B
Fri 09:35:00 PM 55.9900 37.5200 255° West 128 147 1,500 -750 Descending FlightAware ADS-B
Fri 09:35:24 PM 55.9860 37.4950 254° West 129 148 1,200 -600 Descending FlightAware ADS-B
Fri 09:35:40 PM 55.9840 37.4820 255° West 129 148 1,100 -750 Descending FlightAware ADS-B
Fri 09:36:20 PM 55.9780 37.4410 255° West 126 145 500 -900 Descending FlightAware ADS-B
Fri 09:36:44 PM 55.9750 37.4220 254° West 70 81 -1,250 Descending FlightAware ADS-B

Login

Don't have an account? Register now (free) for customized features, flight alerts, and more!